• Join FlightAware (Why Join?)
  • Login
  • US Flag 
02:51PM EDT


 

Airport Tracker/Info


-or-


 

Live Flight TrackerFlight Track Log ✈ AAL832 ✈ 02-May-2013 ✈ KORD - KMIA

Flight Track Log - Related Links

Times and Time Zones

All times are in EDT time to prevent confusion due to time zone crossing. See the AAL832 flight status page for this flight to view local times or setup timezone preferences in your user account.

Time Position Orientation Groundspeed Altitude Reporting Facility
EDT Latitude Longitude Course Direction KTS MPH feet Rate Location/Type
06:02PM 41.9833 -87.8500 180° South 170 196 2,300  Level Chicago TRACON
06:03PM 41.9333 -87.8000 143° Southeast 241 277 4,700 2,700 Climbing Chicago TRACON
06:04PM 41.6659 -87.7223 180° South  Level Estimated
06:04PM 41.8667 -87.8167 191° South 257 296 7,800  Level Chicago TRACON
06:05PM 41.5606 -87.6613 176° South  Level Estimated
06:06PM 41.4553 -87.6004 189° South  Level Estimated
06:06PM 41.7297 -87.8508 191° South 271 312 13,300  Level Chicago Center
06:07PM 41.3499 -87.5397 180° South  Level Estimated
06:07PM 41.6283 -87.8594 184° South 301 346 14,900  Level Chicago Center
06:08PM 41.5311 -87.8375 170° South 347 399 17,300 2,100 Climbing Chicago Center
06:09PM 41.4317 -87.8103 168° South 358 412 19,300 2,040 Climbing Chicago Center
06:10PM 41.3269 -87.7897 172° South 371 427 21,500 1,920 Climbing Chicago Center
06:11PM 41.2197 -87.7703 172° South 383 441 23,300 1,680 Climbing Chicago Center
06:12PM 41.1103 -87.7428 169° South 397 457 25,100 1,260 Climbing Chicago Center
06:13PM 40.9969 -87.7181 171° South 408 470 26,000 600 Climbing Chicago Center
06:14PM 40.8583 -87.6850 170° South 420 483 26,400 900 Climbing Chicago Center
06:15PM 40.7450 -87.6594 170° South 417 480 27,900 1,380 Climbing Chicago Center
06:16PM 40.6283 -87.6328 170° South 423 487 29,300 1,260 Climbing Chicago Center
06:17PM 40.5097 -87.6064 170° South 431 496 30,600 1,500 Climbing Chicago Center
06:19PM 40.3900 -87.5797 170° South 438 504 32,500 1,140 Climbing Chicago Center
06:20PM 40.2489 -87.5494 171° South 429 494 33,000 240 Climbing Chicago Center
06:21PM 40.1325 -87.5236 170° South 433 498 33,000  Level Chicago Center
06:21PM 40.0347 -87.5028 171° South 435 501 33,000  Level Indianapolis Center
06:22PM 39.9153 -87.4767 170° South 437 503 33,000  Level Indianapolis Center
06:23PM 39.7956 -87.4850 183° South 431 496 33,000  Level Indianapolis Center
06:24PM 39.6758 -87.5022 186° South 435 501 33,000  Level Indianapolis Center
06:26PM 39.5319 -87.5225 186° South 437 503 33,000 300 Level Indianapolis Center
06:27PM 39.4108 -87.5231 180° South 444 511 33,700 1,140 Climbing Indianapolis Center
06:28PM 39.2936 -87.4931 169° South 433 498 35,400 1,260 Climbing Indianapolis Center
06:29PM 39.1767 -87.4614 168° South 433 498 36,400 900 Climbing Indianapolis Center
06:30PM 39.0572 -87.4297 168° South 436 502 37,300 780 Climbing Indianapolis Center
06:31PM 38.9364 -87.3989 169° South 439 505 38,100 720 Climbing Indianapolis Center
06:32PM 38.7906 -87.3603 168° South 444 511 38,900 420 Climbing Indianapolis Center
06:33PM 38.6694 -87.3267 168° South 447 514 39,000  Climbing Indianapolis Center
06:34PM 38.5475 -87.2958 169° South 447 514 39,000  Level Indianapolis Center
06:35PM 38.4256 -87.2642 169° South 448 516 39,000  Level Indianapolis Center
06:36PM 38.2836 -87.2247 168° South 452 520 39,000  Level Indianapolis Center
06:37PM 38.1617 -87.1967 170° South 449 517 39,000  Level Indianapolis Center
06:38PM 38.0411 -87.1644 168° South 446 513 39,000  Level Indianapolis Center
06:39PM 37.9208 -87.1325 168° South 442 509 39,000  Level Indianapolis Center
06:40PM 37.7986 -87.1003 168° South 446 513 39,000  Level Indianapolis Center
06:41PM 37.6769 -87.0678 168° South 447 514 39,100  Climbing Indianapolis Center
06:42PM 37.5300 -87.0297 168° South 448 516 39,000 -60 Descending Indianapolis Center
06:43PM 37.4344 -87.0086 170° South 450 518 39,000  Level Memphis Center
06:44PM 37.3150 -86.9772 168° South 450 518 39,000  Level Memphis Center
06:45PM 37.1911 -86.9458 169° South 455 524 39,100  Climbing Memphis Center
06:46PM 37.0653 -86.9150 169° South 455 524 39,000 -60 Descending Memphis Center
06:47PM 36.9564 -86.8886 169° South 450 518 39,000  Level Memphis Center
06:48PM 36.8344 -86.8575 168° South 450 518 39,000  Level Memphis Center
06:49PM 36.7108 -86.8267 169° South 450 518 39,000  Level Memphis Center
06:50PM 36.5889 -86.7931 168° South 450 518 39,000  Level Memphis Center
06:51PM 36.4692 -86.7597 167° South 445 512 39,000  Level Memphis Center
06:52PM 36.3328 -86.7322 171° South 445 512 39,000  Level Memphis Center
06:53PM 36.2131 -86.7017 168° South 455 524 39,000  Level Memphis Center
06:54PM 36.1011 -86.6528 161° South 436 502 39,000  Level Memphis Center
06:55PM 36.0067 -86.5647 143° Southeast 424 488 39,000  Level Memphis Center
06:56PM 35.9231 -86.4864 143° Southeast 430 495 39,000  Level Memphis Center
06:58PM 35.6958 -86.2736 143° Southeast 429 494 39,000  Level Atlanta Center
06:59PM 35.6017 -86.1842 142° Southeast 434 499 39,000  Level Atlanta Center
07:00PM 35.5153 -86.1081 144° Southeast 434 499 39,000  Level Atlanta Center
07:01PM 35.4083 -86.0111 144° Southeast 440 506 39,000  Level Atlanta Center
07:02PM 35.3117 -85.9197 142° Southeast 440 506 39,000  Level Atlanta Center
07:03PM 35.2253 -85.8414 143° Southeast 440 506 39,000  Level Atlanta Center
07:04PM 35.1306 -85.7556 143° Southeast 434 499 39,000  Level Atlanta Center
07:05PM 35.0317 -85.6647 143° Southeast 434 499 39,000  Level Atlanta Center
07:06PM 34.9325 -85.5792 145° Southeast 439 505 39,000  Level Atlanta Center
07:07PM 34.8333 -85.4914 144° Southeast 444 511 39,000  Level Atlanta Center
07:08PM 34.7322 -85.4011 144° Southeast 444 511 39,000  Level Atlanta Center
07:09PM 34.6331 -85.3136 144° Southeast 444 511 39,000  Level Atlanta Center
07:10PM 34.5336 -85.2264 144° Southeast 444 511 39,000  Level Atlanta Center
07:11PM 34.4261 -85.1292 143° Southeast 444 511 39,000  Level Atlanta Center
07:12PM 34.3286 -85.0450 145° Southeast 444 511 39,000  Level Atlanta Center
07:13PM 34.2250 -84.9558 145° Southeast 449 517 39,000  Level Atlanta Center
07:14PM 34.1358 -84.8769 144° Southeast 444 511 39,000  Level Atlanta Center
07:15PM 34.0319 -84.7883 145° Southeast 455 524 39,000  Level Atlanta Center
07:16PM 33.9303 -84.6997 144° Southeast 455 524 39,000  Level Atlanta Center
07:17PM 33.8283 -84.6164 146° Southeast 455 524 39,000  Level Atlanta Center
07:18PM 33.7139 -84.5158 144° Southeast 455 524 39,000  Level Atlanta Center
07:19PM 33.6225 -84.4406 146° Southeast 450 518 39,000  Level Atlanta Center
07:20PM 33.5036 -84.3850 159° South 458 527 39,000  Level Atlanta Center
07:21PM 33.3847 -84.3375 162° South 458 527 39,000  Level Atlanta Center
07:22PM 33.2658 -84.2872 161° South 453 521 39,000  Level Atlanta Center
07:23PM 33.1450 -84.2372 161° South 458 527 39,000  Level Atlanta Center
07:24PM 33.0281 -84.1900 161° South 458 527 39,000  Level Atlanta Center
07:25PM 32.9114 -84.1378 159° South 458 527 39,000  Level Atlanta Center
07:26PM 32.7944 -84.0883 160° South 453 521 39,000  Level Atlanta Center
07:27PM 32.6756 -84.0439 163° South 447 514 39,000  Level Atlanta Center
07:28PM 32.5586 -83.9919 159° South 447 514 39,000  Level Atlanta Center
07:29PM 32.4436 -83.9453 161° South 447 514 39,000  Level Atlanta Center
07:31PM 32.1653 -83.8325 161° South 441 507 39,000  Level Jacksonville Center
07:32PM 32.0528 -83.7872 161° South 441 507 39,000  Level Jacksonville Center
07:33PM 31.9361 -83.7397 161° South 441 507 39,000  Level Jacksonville Center
07:34PM 31.8194 -83.6922 161° South 441 507 39,000  Level Jacksonville Center
07:35PM 31.6986 -83.6789 175° South 434 499 39,000  Level Jacksonville Center
07:36PM 31.5775 -83.6706 177° South 434 499 39,000  Level Jacksonville Center
07:37PM 31.4606 -83.6672 179° South 453 521 39,000  Level Jacksonville Center
07:38PM 31.3394 -83.6589 177° South 453 521 39,000  Level Jacksonville Center
07:39PM 31.2164 -83.6506 177° South 448 516 39,000  Level Jacksonville Center
07:40PM 31.0975 -83.6397 176° South 438 504 39,000  Level Jacksonville Center
07:41PM 30.9742 -83.6317 177° South 438 504 39,000  Level Jacksonville Center
07:42PM 30.8533 -83.6208 176° South 438 504 39,000  Level Jacksonville Center
07:43PM 30.7322 -83.6128 177° South 438 504 39,000  Level Jacksonville Center
07:44PM 30.6131 -83.6069 178° South 438 504 39,000  Level Jacksonville Center
07:45PM 30.4964 -83.5989 177° South 433 498 39,000  Level Jacksonville Center
07:46PM 30.3775 -83.5883 176° South 433 498 39,000  Level Jacksonville Center
07:47PM 30.2583 -83.5803 177° South 433 498 39,000  Level Jacksonville Center
07:48PM 30.1394 -83.5747 178° South 433 498 39,000  Level Jacksonville Center
07:49PM 30.0183 -83.5667 177° South 433 498 39,000  Level Jacksonville Center
07:50PM 29.8994 -83.5586 177° South 433 498 39,000  Level Jacksonville Center
07:51PM 29.7806 -83.5506 177° South 433 498 39,000  Level Jacksonville Center
07:52PM 29.6572 -83.5378 175° South 438 504 39,000  Level Jacksonville Center
07:53PM 29.5383 -83.5300 177° South 438 504 39,000  Level Jacksonville Center
07:54PM 29.4172 -83.5219 177° South 443 510 39,000  Level Jacksonville Center
07:55PM 29.2964 -83.5142 177° South 443 510 39,000  Level Jacksonville Center
07:56PM 29.1775 -83.5061 177° South 443 510 39,000  Level Jacksonville Center
07:57PM 29.0542 -83.4958 176° South 443 510 39,000  Level Jacksonville Center
07:58PM 28.9311 -83.4906 178° South 443 510 39,000  Level Jacksonville Center
08:00PM 28.6739 -83.4700 176° South 438 504 39,000  Level Miami Center
08:01PM 28.5511 -83.4603 176° South 438 504 39,000  Level Miami Center
08:02PM 28.4264 -83.4528 177° South 438 504 39,000  Level Miami Center
08:03PM 28.3061 -83.4433 176° South 438 504 39,000  Level Miami Center
08:04PM 28.1792 -83.4361 177° South 444 511 39,000  Level Miami Center
08:05PM 28.0567 -83.4267 176° South 444 511 39,000  Level Miami Center
08:06PM 27.9381 -83.3728 158° South 435 501 39,000  Level Miami Center
08:07PM 27.8339 -83.2800 142° Southeast 445 512 39,000  Level Miami Center
08:08PM 27.7206 -83.1961 147° Southeast 442 509 39,000  Level Miami Center
08:09PM 27.5919 -83.1844 175° South 456 525 39,000 -180 Level Miami Center
08:10PM 27.4664 -83.1914 183° South 456 525 38,700 -600 Descending Miami Center
08:11PM 27.3367 -83.1983 183° South 463 533 37,800 -1,080 Descending Miami Center
08:12PM 27.2092 -83.2053 183° South 463 533 36,600 -1,620 Descending Miami Center
08:13PM 27.0775 -83.2097 182° South 468 539 34,600 -1,920 Descending Miami Center
08:14PM 26.9481 -83.2144 182° South 468 539 32,800 -1,800 Descending Miami Center
08:15PM 26.8247 -83.2217 183° South 462 532 31,000 -1,860 Descending Miami Center
08:16PM 26.7053 -83.2336 185° South 450 518 29,100 -1,680 Descending Miami Center
08:17PM 26.5956 -83.2092 169° South 407 468 27,700 -1,200 Descending Miami Center
08:18PM 26.5425 -83.0903 116° Southeast 363 418 26,800 -960 Descending Miami Center
08:19PM 26.5083 -82.9608 106° East 385 443 25,800 -1,020 Descending Miami Center
08:20PM 26.4697 -82.8339 109° East 403 464 24,800 -960 Descending Miami Center
08:21PM 26.4350 -82.7114 108° East 414 476 23,900 -420 Descending Miami Center
08:22PM 26.3961 -82.5867 109° East 414 476 24,000  Climbing Miami Center
08:23PM 26.3611 -82.4644 108° East 414 476 24,000  Level Miami Center
08:24PM 26.3242 -82.3422 109° East 414 476 24,000  Level Miami Center
08:25PM 26.2869 -82.2178 108° East 414 476 24,000  Level Miami Center
08:26PM 26.2517 -82.0983 108° East 424 488 24,000  Level Miami Center
08:27PM 26.2142 -81.9786 109° East 424 488 24,000 -540 Level Miami Center
08:28PM 26.1789 -81.8544 108° East 424 488 23,000 -1,500 Descending Miami Center
08:29PM 26.1431 -81.7372 109° East 418 481 21,100 -1,860 Descending Miami Center
08:30PM 26.1050 -81.6225 110° East 406 467 19,300 -1,920 Descending Miami Center
08:31PM 26.0669 -81.5075 110° East 395 455 17,300 -1,260 Descending Miami Center
08:32PM 26.0328 -81.3978 109° East 384 442 16,800 -1,320 Descending Miami Center
08:33PM 25.9967 -81.2878 110° East 379 436 14,700 -2,340 Descending Miami Center
08:34PM 25.9600 -81.1847 112° Southeast 374 430 12,500 -2,340 Descending Miami Center
08:35PM 25.9389 -81.1217 110° East 360 414 11,200 -1,500 Descending Miami Center
08:36PM 25.9058 -81.0328 112° Southeast 324 373 10,200 -1,020 Descending Miami Center
08:36PM 25.8775 -81.0039 137° Southeast 341 392 9,700 -1,140 Descending Miami Center
08:37PM 25.8428 -80.9728 141° Southeast 296 341 9,100 -1,320 Descending Miami Center
08:37PM 25.8272 -80.9308 112° Southeast 312 359 8,400 -1,560 Descending Miami Center
08:38PM 25.7994 -80.8789 121° Southeast 297 342 7,400 -1,500 Descending Miami Center
08:38PM 25.7919 -80.8486 105° East 300 345 6,900 -1,380 Descending Miami Center
08:39PM 25.7622 -80.7969 123° Southeast 291 335 6,000 -1,440 Descending Miami Center
08:39PM 25.7650 -80.7694 84° East 289 333 5,500 -1,140 Descending Miami Center
08:40PM 25.7644 -80.7117 91° East 276 318 4,900 -1,140 Descending Miami Center
08:40PM 25.7692 -80.6867 78° East 272 313 4,400 -840 Descending Miami Center
08:41PM 25.7686 -80.6267 91° East 231 266 4,000 -540 Descending Miami Center
08:41PM 25.7731 -80.6128 70° East 254 292 3,900 -900 Descending Miami Center
08:42PM 25.7722 -80.5689 91° East 204 235 3,200 -1,020 Descending Miami Center
08:42PM 25.7747 -80.5483 82° East 230 265 2,900 -240 Descending Miami Center
08:43PM 25.7739 -80.5067 91° East 201 231 3,000  Climbing Miami Center
08:43PM 25.7806 -80.4861 70° East 207 238 2,900 -600 Descending Miami Center
08:44PM 25.7772 -80.4469 95° East 180 207 2,400 -780 Descending Miami Center